Time;durP1;ratioP1;P1;durP2;ratioP2;P2;SDS_P1;SDS_P2;PMS_P1;PMS_P2;Temp;Humidity;BMP_temperature;BMP_pressure;BME280_temperature;BME280_humidity;BME280_pressure;Samples;Min_cycle;Max_cycle;Signal;HPM_P1;HPM_P2
2022/11/04 00:01:39;;;;;;;1.67;0.95;;;;;;;;;;5040865;28;20048;-80
2022/11/04 00:04:04;;;;;;;2.72;1.00;;;;;;;;;;5058236;28;20194;-79
2022/11/04 00:06:30;;;;;;;1.52;1.10;;;;;;;;;;5057396;28;20059;-79
2022/11/04 00:08:57;;;;;;;2.13;1.00;;;;;;;;;;5057602;28;20033;-79
2022/11/04 00:14:07;;;;;;;1.50;0.90;;;;;;;;;;5060492;28;20035;-79
2022/11/04 00:19:17;;;;;;;;;;;;;;;;;;5075971;28;20394;-79
2022/11/04 00:29:55;;;;;;;2.17;0.85;;;;;;;;;;5060156;28;20078;-79
2022/11/04 00:35:06;;;;;;;2.60;0.93;;;;;;;;;;5060001;28;20449;-78
2022/11/04 00:37:31;;;;;;;2.58;1.10;;;;;;;;;;5057212;28;20108;-79
2022/11/04 00:39:56;;;;;;;1.35;1.02;;;;;;;;;;5040388;28;20122;-79
2022/11/04 00:42:22;;;;;;;1.40;0.90;;;;;;;;;;5075023;28;20036;-78
2022/11/04 00:44:47;;;;;;;5.40;1.00;;;;;;;;;;5075069;28;20097;-79
2022/11/04 00:47:12;;;;;;;1.95;1.20;;;;;;;;;;5074827;28;20032;-78
2022/11/04 00:49:38;;;;;;;1.63;0.80;;;;;;;;;;5040401;28;20029;-79
2022/11/04 00:52:03;;;;;;;2.83;1.17;;;;;;;;;;5074919;28;20107;-79
2022/11/04 00:54:29;;;;;;;1.15;1.00;;;;;;;;;;5040015;28;20056;-79
2022/11/04 00:56:54;;;;;;;1.35;0.98;;;;;;;;;;5056846;28;20039;-79
2022/11/04 00:59:20;;;;;;;1.83;0.90;;;;;;;;;;5056982;28;20029;-79
2022/11/04 01:01:45;;;;;;;1.30;0.70;;;;;;;;;;5040097;28;20090;-80
2022/11/04 01:04:11;;;;;;;3.78;0.95;;;;;;;;;;5056509;28;20028;-80
2022/11/04 01:06:36;;;;;;;2.55;0.93;;;;;;;;;;5056678;28;20024;-79
2022/11/04 01:09:04;;;;;;;2.30;1.00;;;;;;;;;;5056299;28;20480;-79
2022/11/04 01:11:30;;;;;;;2.40;0.80;;;;;;;;;;5056559;28;20463;-80
2022/11/04 01:13:56;;;;;;;3.08;1.10;;;;;;;;;;5056643;28;20035;-79
2022/11/04 01:16:22;;;;;;;1.23;0.70;;;;;;;;;;5074727;28;20032;-79
2022/11/04 01:18:47;;;;;;;2.03;1.00;;;;;;;;;;5056144;28;20036;-80
2022/11/04 01:21:14;;;;;;;1.40;0.93;;;;;;;;;;5056033;28;20034;-79
2022/11/04 01:23:41;;;;;;;2.80;1.30;;;;;;;;;;5039399;28;20024;-80
2022/11/04 01:26:08;;;;;;;1.58;1.00;;;;;;;;;;5056396;28;20422;-79
2022/11/04 01:28:33;;;;;;;1.73;0.90;;;;;;;;;;5056008;28;20328;-79
2022/11/04 01:30:59;;;;;;;1.55;0.93;;;;;;;;;;5074193;28;20120;-80
2022/11/04 01:33:24;;;;;;;1.88;1.05;;;;;;;;;;5073868;28;20033;-79
2022/11/04 01:35:50;;;;;;;2.75;0.80;;;;;;;;;;5073740;28;20498;-79
2022/11/04 01:38:16;;;;;;;1.83;0.93;;;;;;;;;;5039140;28;20035;-79
2022/11/04 01:40:41;;;;;;;0.82;0.82;;;;;;;;;;5055786;28;20032;-79
2022/11/04 01:43:13;;;;;;;2.17;1.00;;;;;;;;;;5039341;28;20040;-79
2022/11/04 01:45:39;;;;;;;1.67;0.98;;;;;;;;;;5055663;28;20028;-79
2022/11/04 01:48:19;;;;;;;1.73;0.93;;;;;;;;;;5038969;28;20136;-80
2022/11/04 01:50:45;;;;;;;2.65;1.08;;;;;;;;;;5056092;28;20343;-80
2022/11/04 01:53:15;;;;;;;3.92;1.10;;;;;;;;;;5073339;28;20028;-79
2022/11/04 01:55:46;;;;;;;1.02;0.93;;;;;;;;;;5055553;28;20529;-79
2022/11/04 01:58:14;;;;;;;1.25;0.80;;;;;;;;;;5055500;28;20021;-79
2022/11/04 02:00:41;;;;;;;1.33;0.90;;;;;;;;;;5055025;28;20082;-79
2022/11/04 02:03:18;;;;;;;2.75;0.93;;;;;;;;;;5055279;28;20036;-80
2022/11/04 02:05:43;;;;;;;1.48;0.80;;;;;;;;;;5055114;28;20021;-79
2022/11/04 02:08:10;;;;;;;1.30;1.00;;;;;;;;;;5055535;28;20343;-79
2022/11/04 02:10:39;;;;;;;1.27;0.80;;;;;;;;;;5055296;28;20028;-80
2022/11/04 02:13:04;;;;;;;1.48;0.95;;;;;;;;;;5055490;28;20484;-79
2022/11/04 02:15:59;;;;;;;1.83;0.95;;;;;;;;;;5055305;28;20134;-79
2022/11/04 02:18:43;;;;;;;3.38;0.80;;;;;;;;;;5073025;28;20070;-79
2022/11/04 02:21:11;;;;;;;1.63;0.73;;;;;;;;;;5073041;28;20446;-79
2022/11/04 02:23:42;;;;;;;1.95;0.90;;;;;;;;;;5073198;28;20048;-80
2022/11/04 02:26:26;;;;;;;2.28;0.95;;;;;;;;;;5072937;28;20107;-79
2022/11/04 02:29:19;;;;;;;1.48;0.80;;;;;;;;;;5073327;28;20067;-79
2022/11/04 02:32:18;;;;;;;0.75;0.55;;;;;;;;;;5073140;28;20024;-79
2022/11/04 02:34:47;;;;;;;1.10;1.00;;;;;;;;;;5072839;28;20382;-80
2022/11/04 02:37:40;;;;;;;1.45;0.90;;;;;;;;;;5073074;28;20024;-79
2022/11/04 02:40:31;;;;;;;2.67;0.80;;;;;;;;;;5073066;28;20120;-79
2022/11/04 02:43:03;;;;;;;1.08;0.68;;;;;;;;;;5073351;28;20028;-79
2022/11/04 02:45:37;;;;;;;1.38;0.85;;;;;;;;;;5072842;28;20606;-79
2022/11/04 02:48:05;;;;;;;;;;;;;;;;;;5055404;28;20032;-77
2022/11/04 02:50:34;;;;;;;1.38;0.75;;;;;;;;;;5055107;28;19908;-79
2022/11/04 02:53:13;;;;;;;0.65;0.65;;;;;;;;;;5072768;28;20032;-79
2022/11/04 02:55:49;;;;;;;1.08;0.50;;;;;;;;;;5054623;28;20083;-79
2022/11/04 02:58:24;;;;;;;0.75;0.75;;;;;;;;;;5054678;28;20016;-79
2022/11/04 03:00:51;;;;;;;1.75;0.95;;;;;;;;;;5054990;28;20024;-79
2022/11/04 03:03:21;;;;;;;1.17;0.60;;;;;;;;;;5054944;28;20434;-79
2022/11/04 03:05:48;;;;;;;3.50;0.70;;;;;;;;;;5054700;28;20113;-79
2022/11/04 03:08:26;;;;;;;1.13;0.70;;;;;;;;;;5037744;28;20032;-78
2022/11/04 03:10:54;;;;;;;2.83;0.80;;;;;;;;;;5055701;28;20025;-80
2022/11/04 03:13:23;;;;;;;1.75;0.70;;;;;;;;;;5042189;28;20048;-80
2022/11/04 03:15:57;;;;;;;2.33;0.80;;;;;;;;;;5077032;28;20032;-79
2022/11/04 03:18:29;;;;;;;1.10;0.70;;;;;;;;;;5058835;28;20020;-80
2022/11/04 03:20:57;;;;;;;0.95;0.82;;;;;;;;;;5076392;28;20052;-79
2022/11/04 03:23:22;;;;;;;1.15;0.70;;;;;;;;;;5041871;28;20027;-80
2022/11/04 03:25:51;;;;;;;1.17;0.60;;;;;;;;;;5058322;28;20123;-80
2022/11/04 03:28:45;;;;;;;1.48;0.60;;;;;;;;;;5058467;28;20043;-80
2022/11/04 03:31:19;;;;;;;2.92;0.80;;;;;;;;;;5058270;28;20024;-80
2022/11/04 03:33:44;;;;;;;;;;;;;;;;;;5058658;28;20078;-77
2022/11/04 03:36:09;;;;;;;2.47;0.80;;;;;;;;;;5058063;28;20363;-80
2022/11/04 03:38:35;;;;;;;2.00;0.60;;;;;;;;;;5058208;28;20033;-80
2022/11/04 03:41:02;;;;;;;2.25;0.70;;;;;;;;;;5058297;28;20037;-79
2022/11/04 03:43:28;;;;;;;0.60;0.60;;;;;;;;;;5058268;28;20032;-80
2022/11/04 03:45:54;;;;;;;0.57;0.57;;;;;;;;;;5057835;28;20035;-80
2022/11/04 03:48:19;;;;;;;1.60;0.80;;;;;;;;;;5075979;28;20036;-80
2022/11/04 03:50:47;;;;;;;1.40;0.73;;;;;;;;;;5057918;28;20024;-80
2022/11/04 03:53:16;;;;;;;2.35;0.90;;;;;;;;;;5057845;28;20020;-80
2022/11/04 03:56:19;;;;;;;2.90;0.68;;;;;;;;;;5057506;28;20063;-80
2022/11/04 03:59:04;;;;;;;0.65;0.55;;;;;;;;;;5075697;28;20024;-80
2022/11/04 04:02:02;;;;;;;0.63;0.63;;;;;;;;;;5075585;28;20062;-80
2022/11/04 04:04:30;;;;;;;1.58;0.70;;;;;;;;;;5074948;28;20028;-80
2022/11/04 04:07:25;;;;;;;2.67;0.93;;;;;;;;;;5075743;28;20024;-80
2022/11/04 04:10:37;;;;;;;;;;;;;;;;;;5073314;28;20132;-77
2022/11/04 04:12:57;;;;;;;;;;;;;;;;;;5038357;28;19916;-78
2022/11/04 04:15:26;;;;;;;0.55;0.50;;;;;;;;;;5057789;28;19909;-79
2022/11/04 04:17:56;;;;;;;1.55;0.95;;;;;;;;;;5057418;28;20020;-79
2022/11/04 04:20:25;;;;;;;2.42;0.82;;;;;;;;;;5075144;28;20094;-79
2022/11/04 04:22:53;;;;;;;1.42;0.63;;;;;;;;;;5056637;28;20119;-80
2022/11/04 04:28:05;;;;;;;0.70;0.70;;;;;;;;;;5075347;28;20075;-80
2022/11/04 04:30:30;;;;;;;2.63;0.80;;;;;;;;;;5075084;28;20032;-79
2022/11/04 04:32:58;;;;;;;2.00;0.80;;;;;;;;;;5040455;28;20475;-80
2022/11/04 04:35:40;;;;;;;2.15;0.80;;;;;;;;;;5057544;28;20031;-79
2022/11/04 04:46:31;;;;;;;0.90;0.80;;;;;;;;;;5059616;28;19919;-80
2022/11/04 04:49:04;;;;;;;3.58;0.85;;;;;;;;;;5023416;28;20036;-80
2022/11/04 04:51:30;;;;;;;1.40;1.00;;;;;;;;;;5056825;28;20086;-79
2022/11/04 04:53:55;;;;;;;1.48;0.80;;;;;;;;;;5056552;28;20032;-79
2022/11/04 04:56:21;;;;;;;1.52;1.20;;;;;;;;;;5074845;28;20566;-79
2022/11/04 04:58:46;;;;;;;1.30;1.20;;;;;;;;;;5074551;28;20021;-79
2022/11/04 05:01:11;;;;;;;2.08;1.27;;;;;;;;;;5074821;28;20033;-79
2022/11/04 05:03:37;;;;;;;3.13;1.50;;;;;;;;;;5040450;28;20081;-79
2022/11/04 05:06:02;;;;;;;1.52;1.30;;;;;;;;;;5074906;28;20029;-79
2022/11/04 05:08:27;;;;;;;3.05;1.40;;;;;;;;;;5039879;28;20391;-79
2022/11/04 05:10:53;;;;;;;2.15;1.52;;;;;;;;;;5039485;28;20028;-79
2022/11/04 05:13:28;;;;;;;2.50;1.60;;;;;;;;;;5074844;28;20055;-79
2022/11/04 05:15:56;;;;;;;2.92;1.80;;;;;;;;;;5041065;28;20066;-80
2022/11/04 05:18:22;;;;;;;3.83;2.00;;;;;;;;;;5056463;28;20025;-79
2022/11/04 05:20:47;;;;;;;7.82;2.22;;;;;;;;;;5056193;28;20031;-80
2022/11/04 05:23:13;;;;;;;9.05;2.92;;;;;;;;;;5056334;28;20466;-80
2022/11/04 05:25:40;;;;;;;7.22;3.05;;;;;;;;;;5056452;28;20028;-79
2022/11/04 05:28:05;;;;;;;5.75;2.80;;;;;;;;;;5039297;28;20032;-79
2022/11/04 05:30:31;;;;;;;7.50;3.22;;;;;;;;;;5056357;28;20385;-80
2022/11/04 05:32:57;;;;;;;5.85;2.72;;;;;;;;;;5056192;28;20509;-80
2022/11/04 05:35:22;;;;;;;7.53;2.92;;;;;;;;;;5055697;28;20032;-80
2022/11/04 05:37:48;;;;;;;4.88;2.80;;;;;;;;;;5073915;28;20102;-80
2022/11/04 05:40:13;;;;;;;7.40;3.25;;;;;;;;;;5039283;28;20090;-82
2022/11/04 05:42:39;;;;;;;5.03;2.97;;;;;;;;;;5073986;28;20085;-80
2022/11/04 05:45:05;;;;;;;6.53;3.42;;;;;;;;;;5039233;28;20437;-81
2022/11/04 05:47:30;;;;;;;11.00;3.38;;;;;;;;;;5055898;28;20037;-80
2022/11/04 05:49:56;;;;;;;4.85;3.15;;;;;;;;;;5057603;28;20031;-79
2022/11/04 05:52:21;;;;;;;13.85;3.30;;;;;;;;;;5056189;28;20032;-78
2022/11/04 05:54:47;;;;;;;8.30;3.30;;;;;;;;;;5073443;28;20052;-79
2022/11/04 05:57:12;;;;;;;7.00;3.75;;;;;;;;;;5073597;28;20044;-78
2022/11/04 05:59:37;;;;;;;6.57;3.38;;;;;;;;;;5039343;28;20026;-77
2022/11/04 06:02:03;;;;;;;5.05;3.22;;;;;;;;;;5073551;28;20036;-78
2022/11/04 06:04:28;;;;;;;8.38;3.97;;;;;;;;;;5039651;28;20036;-78
2022/11/04 06:06:53;;;;;;;6.43;3.67;;;;;;;;;;5074795;28;20052;-78
2022/11/04 06:09:19;;;;;;;9.18;3.63;;;;;;;;;;5074233;28;20421;-78
2022/11/04 06:11:44;;;;;;;5.55;3.47;;;;;;;;;;5073963;28;20473;-78
2022/11/04 06:14:10;;;;;;;5.72;2.92;;;;;;;;;;5073866;28;20086;-78
2022/11/04 06:16:36;;;;;;;9.23;3.22;;;;;;;;;;5055579;28;20028;-78
2022/11/04 06:19:01;;;;;;;6.72;3.65;;;;;;;;;;5056496;28;20032;-80
2022/11/04 06:21:28;;;;;;;10.43;3.35;;;;;;;;;;5040090;28;20368;-79
2022/11/04 06:23:57;;;;;;;7.53;3.58;;;;;;;;;;5057418;28;20336;-80
2022/11/04 06:26:26;;;;;;;8.55;3.35;;;;;;;;;;5074267;28;20103;-79
2022/11/04 06:28:52;;;;;;;5.28;2.90;;;;;;;;;;5056852;28;20429;-79
2022/11/04 06:31:18;;;;;;;4.50;3.05;;;;;;;;;;5074495;28;20035;-77
2022/11/04 06:33:43;;;;;;;4.60;3.15;;;;;;;;;;5074218;28;20367;-77
2022/11/04 06:36:12;;;;;;;6.03;2.88;;;;;;;;;;5073939;28;20067;-79
2022/11/04 06:38:38;;;;;;;15.65;3.25;;;;;;;;;;5073154;28;20048;-77
2022/11/04 06:41:05;;;;;;;4.57;2.72;;;;;;;;;;5073774;28;20435;-77
2022/11/04 06:43:31;;;;;;;4.45;2.90;;;;;;;;;;5055604;28;20028;-80
2022/11/04 06:45:57;;;;;;;4.07;2.60;;;;;;;;;;5056323;28;20032;-78
2022/11/04 06:48:23;;;;;;;4.88;2.60;;;;;;;;;;5055491;28;20055;-77
2022/11/04 06:50:49;;;;;;;8.07;2.83;;;;;;;;;;5073654;28;20204;-78
2022/11/04 06:53:14;;;;;;;5.90;2.90;;;;;;;;;;5054693;28;20058;-80
2022/11/04 06:55:40;;;;;;;4.65;3.10;;;;;;;;;;5073453;28;20499;-80
2022/11/04 06:58:05;;;;;;;5.88;2.95;;;;;;;;;;5072938;28;20024;-80
2022/11/04 07:00:30;;;;;;;5.32;2.67;;;;;;;;;;5055539;28;20150;-80
2022/11/04 07:02:56;;;;;;;4.85;2.45;;;;;;;;;;5054666;28;20093;-80
2022/11/04 07:05:21;;;;;;;5.07;2.60;;;;;;;;;;5072944;28;20044;-80
2022/11/04 07:07:47;;;;;;;4.45;2.70;;;;;;;;;;5072844;28;20036;-80
2022/11/04 07:10:12;;;;;;;4.97;2.50;;;;;;;;;;5073025;28;20031;-80
2022/11/04 07:12:37;;;;;;;4.57;2.78;;;;;;;;;;5073713;28;20105;-80
2022/11/04 07:15:03;;;;;;;4.40;2.72;;;;;;;;;;5072608;28;20028;-80
2022/11/04 07:17:29;;;;;;;3.88;2.50;;;;;;;;;;5073157;28;20387;-80
2022/11/04 07:19:54;;;;;;;4.53;2.45;;;;;;;;;;5057031;28;20029;-77
2022/11/04 07:22:19;;;;;;;3.90;2.33;;;;;;;;;;5073275;28;20043;-80
2022/11/04 07:24:45;;;;;;;5.70;2.67;;;;;;;;;;5072864;28;20031;-80
2022/11/04 07:27:10;;;;;;;8.43;2.60;;;;;;;;;;5054655;28;20069;-77
2022/11/04 07:29:36;;;;;;;3.38;2.10;;;;;;;;;;5054587;28;20134;-78
2022/11/04 07:32:01;;;;;;;3.70;2.63;;;;;;;;;;5072331;28;20360;-80
2022/11/04 07:34:27;;;;;;;5.10;2.72;;;;;;;;;;5054873;28;20032;-77
2022/11/04 07:36:53;;;;;;;3.22;2.30;;;;;;;;;;5073266;28;20028;-77
2022/11/04 07:39:18;;;;;;;5.47;2.15;;;;;;;;;;5037884;28;20024;-79
2022/11/04 07:41:43;;;;;;;4.20;2.15;;;;;;;;;;5037802;28;20033;-77
2022/11/04 07:44:12;;;;;;;4.65;2.45;;;;;;;;;;5072351;28;20032;-80
2022/11/04 07:46:37;;;;;;;5.40;2.03;;;;;;;;;;5037591;28;20544;-79
2022/11/04 07:49:03;;;;;;;5.07;2.10;;;;;;;;;;5054124;28;20032;-80
2022/11/04 07:51:31;;;;;;;6.70;2.17;;;;;;;;;;5054352;28;20028;-79
2022/11/04 07:53:57;;;;;;;4.80;2.00;;;;;;;;;;5037768;28;20034;-79
2022/11/04 07:56:23;;;;;;;15.50;4.55;;;;;;;;;;5037520;28;20024;-79
2022/11/04 07:58:49;;;;;;;18.58;5.55;;;;;;;;;;5056598;28;20082;-80
2022/11/04 08:01:16;;;;;;;36.72;7.70;;;;;;;;;;5057998;28;20036;-79
2022/11/04 08:03:42;;;;;;;44.70;8.13;;;;;;;;;;5057720;28;20023;-81
2022/11/04 08:06:09;;;;;;;44.30;7.97;;;;;;;;;;5076159;28;20032;-78
2022/11/04 08:08:35;;;;;;;37.80;6.65;;;;;;;;;;5057970;28;20033;-78
2022/11/04 08:11:09;;;;;;;29.42;7.15;;;;;;;;;;5041150;28;20142;-78
2022/11/04 08:13:36;;;;;;;32.85;6.47;;;;;;;;;;5057573;28;20047;-80
2022/11/04 08:16:04;;;;;;;18.25;5.10;;;;;;;;;;5075738;28;20379;-78
2022/11/04 08:18:33;;;;;;;23.75;6.63;;;;;;;;;;5041683;28;20020;-79
2022/11/04 08:20:59;;;;;;;18.17;5.40;;;;;;;;;;5057284;28;20058;-78
2022/11/04 08:23:24;;;;;;;14.27;4.43;;;;;;;;;;5057927;28;20031;-78
2022/11/04 08:25:52;;;;;;;21.90;4.60;;;;;;;;;;5057427;28;20033;-80
2022/11/04 08:28:17;;;;;;;26.95;5.13;;;;;;;;;;5040320;28;20107;-80
2022/11/04 08:31:05;;;;;;;19.30;4.40;;;;;;;;;;5057078;28;20499;-80
2022/11/04 08:33:31;;;;;;;17.85;3.90;;;;;;;;;;5057061;28;20494;-79
2022/11/04 08:36:06;;;;;;;13.18;3.92;;;;;;;;;;5074919;28;20036;-79
2022/11/04 08:38:33;;;;;;;12.25;3.60;;;;;;;;;;5057339;28;20032;-79
2022/11/04 08:40:59;;;;;;;22.77;4.13;;;;;;;;;;5040355;28;20043;-79
2022/11/04 08:43:25;;;;;;;13.07;3.42;;;;;;;;;;5040331;28;20032;-79
2022/11/04 08:45:51;;;;;;;14.73;4.32;;;;;;;;;;5057002;28;20503;-80
2022/11/04 08:48:16;;;;;;;18.30;4.57;;;;;;;;;;5056830;28;20032;-78
2022/11/04 08:50:42;;;;;;;11.15;3.03;;;;;;;;;;5074945;28;20410;-78
2022/11/04 08:53:08;;;;;;;10.00;2.80;;;;;;;;;;5039890;28;20479;-79
2022/11/04 08:55:34;;;;;;;15.88;2.85;;;;;;;;;;5056756;28;20098;-78
2022/11/04 08:58:00;;;;;;;10.52;2.80;;;;;;;;;;5074485;28;20036;-79
2022/11/04 09:00:26;;;;;;;12.90;3.40;;;;;;;;;;5056382;28;20057;-78
2022/11/04 09:02:51;;;;;;;10.57;3.28;;;;;;;;;;5074987;28;20119;-78
2022/11/04 09:05:17;;;;;;;15.27;2.65;;;;;;;;;;5040620;28;20036;-78
2022/11/04 09:07:43;;;;;;;8.80;2.75;;;;;;;;;;5056491;28;20462;-79
2022/11/04 09:10:09;;;;;;;13.88;2.75;;;;;;;;;;5056196;28;20063;-76
2022/11/04 09:12:34;;;;;;;9.63;2.30;;;;;;;;;;5057268;28;20127;-78
2022/11/04 09:15:00;;;;;;;10.77;2.88;;;;;;;;;;5074520;28;20478;-76
2022/11/04 09:17:25;;;;;;;8.85;2.25;;;;;;;;;;5056386;28;20032;-78
2022/11/04 09:19:51;;;;;;;6.43;2.17;;;;;;;;;;5074496;28;20107;-75
2022/11/04 09:22:16;;;;;;;8.30;2.70;;;;;;;;;;5074147;28;20449;-77
2022/11/04 09:24:42;;;;;;;5.85;2.60;;;;;;;;;;5056297;28;20394;-77
2022/11/04 09:27:07;;;;;;;8.90;2.25;;;;;;;;;;5074519;28;20028;-77
2022/11/04 09:29:35;;;;;;;11.27;2.72;;;;;;;;;;5073927;28;20054;-77
2022/11/04 09:32:03;;;;;;;8.73;2.50;;;;;;;;;;5040236;28;20026;-77
2022/11/04 09:34:29;;;;;;;9.02;2.67;;;;;;;;;;5056263;28;20036;-77
2022/11/04 09:36:55;;;;;;;11.40;2.88;;;;;;;;;;5055812;28;20035;-77
2022/11/04 09:39:21;;;;;;;22.92;2.70;;;;;;;;;;5056210;28;20024;-77
2022/11/04 09:41:52;;;;;;;15.55;3.03;;;;;;;;;;5074388;28;20459;-77
2022/11/04 09:44:23;;;;;;;14.05;3.42;;;;;;;;;;5055935;28;20033;-77
2022/11/04 09:46:50;;;;;;;12.32;2.92;;;;;;;;;;5073828;28;20435;-77
2022/11/04 09:49:15;;;;;;;14.93;3.15;;;;;;;;;;5055706;28;20089;-77
2022/11/04 09:51:44;;;;;;;13.50;2.83;;;;;;;;;;5055658;28;20115;-78
2022/11/04 09:54:15;;;;;;;20.75;3.05;;;;;;;;;;5055762;28;20028;-77
2022/11/04 09:56:43;;;;;;;8.63;2.90;;;;;;;;;;5055904;28;20113;-77
2022/11/04 09:59:10;;;;;;;20.23;3.28;;;;;;;;;;5055967;28;20024;-77
2022/11/04 10:01:41;;;;;;;8.18;2.60;;;;;;;;;;5055588;28;20035;-77
2022/11/04 10:04:21;;;;;;;9.88;2.72;;;;;;;;;;5038898;28;20127;-78
2022/11/04 10:07:19;;;;;;;11.73;2.95;;;;;;;;;;5073337;28;20043;-78
2022/11/04 10:10:02;;;;;;;5.15;2.53;;;;;;;;;;5057373;28;20124;-78
2022/11/04 10:12:39;;;;;;;5.45;2.10;;;;;;;;;;5073967;28;20106;-77
2022/11/04 10:15:33;;;;;;;9.70;2.60;;;;;;;;;;5073250;28;20056;-77
2022/11/04 10:18:08;;;;;;;7.85;2.42;;;;;;;;;;5073210;28;20028;-77
2022/11/04 10:20:47;;;;;;;9.73;2.20;;;;;;;;;;5038191;28;20050;-78
2022/11/04 10:23:26;;;;;;;9.27;2.65;;;;;;;;;;5055486;28;20025;-77
2022/11/04 10:26:11;;;;;;;13.05;2.33;;;;;;;;;;5038619;28;20032;-78
2022/11/04 10:28:42;;;;;;;5.95;2.78;;;;;;;;;;5055095;28;20060;-76
2022/11/04 10:31:13;;;;;;;5.88;2.42;;;;;;;;;;5038551;28;20447;-76
2022/11/04 10:33:41;;;;;;;10.75;2.33;;;;;;;;;;5055335;28;20020;-75
2022/11/04 10:36:09;;;;;;;9.07;2.88;;;;;;;;;;5072936;28;20032;-75
2022/11/04 10:38:55;;;;;;;14.98;2.92;;;;;;;;;;5038410;28;20070;-76
2022/11/04 10:41:23;;;;;;;7.75;2.33;;;;;;;;;;5071175;28;20040;-76
2022/11/04 10:44:19;;;;;;;8.15;2.63;;;;;;;;;;5072936;28;20411;-76
2022/11/04 10:47:06;;;;;;;6.57;2.30;;;;;;;;;;5038133;28;20031;-75
2022/11/04 10:49:47;;;;;;;19.10;2.50;;;;;;;;;;5054756;28;20025;-76
2022/11/04 10:52:12;;;;;;;8.23;2.50;;;;;;;;;;5072726;28;20048;-75
2022/11/04 10:54:40;;;;;;;9.18;2.60;;;;;;;;;;5072621;28;20099;-75
2022/11/04 10:57:06;;;;;;;8.30;2.22;;;;;;;;;;5054868;28;20466;-76
2022/11/04 11:00:00;;;;;;;6.75;2.33;;;;;;;;;;5054716;28;20029;-76
2022/11/04 11:02:43;;;;;;;12.48;2.50;;;;;;;;;;5055251;28;20016;-76
2022/11/04 11:05:18;;;;;;;6.78;2.28;;;;;;;;;;5054916;28;20024;-76
2022/11/04 11:07:52;;;;;;;14.20;2.40;;;;;;;;;;5072462;28;20052;-77
2022/11/04 11:10:26;;;;;;;7.43;2.42;;;;;;;;;;5037825;28;20039;-77
2022/11/04 11:13:05;;;;;;;8.40;2.85;;;;;;;;;;5055034;28;20028;-77
2022/11/04 11:15:40;;;;;;;9.55;2.50;;;;;;;;;;5054782;28;20032;-77
2022/11/04 11:18:05;;;;;;;8.18;2.17;;;;;;;;;;5038263;28;20012;-77
2022/11/04 11:20:32;;;;;;;12.63;2.85;;;;;;;;;;5072480;28;20539;-78
2022/11/04 11:22:58;;;;;;;8.48;2.15;;;;;;;;;;5038227;28;20123;-76
2022/11/04 11:25:26;;;;;;;10.32;2.97;;;;;;;;;;5072559;28;20108;-77
2022/11/04 11:28:19;;;;;;;9.80;2.55;;;;;;;;;;5054764;28;20382;-77
2022/11/04 11:30:45;;;;;;;9.57;2.63;;;;;;;;;;5054470;28;20029;-77
2022/11/04 11:33:32;;;;;;;4.90;2.55;;;;;;;;;;5074198;28;20028;-77
2022/11/04 11:36:03;;;;;;;5.65;2.47;;;;;;;;;;5058567;28;20417;-76
2022/11/04 11:38:31;;;;;;;8.30;2.85;;;;;;;;;;5058484;28;20025;-76
2022/11/04 11:41:11;;;;;;;9.32;2.67;;;;;;;;;;5076690;28;20033;-77
2022/11/04 11:43:42;;;;;;;8.07;2.70;;;;;;;;;;5058844;28;20392;-77
2022/11/04 11:46:09;;;;;;;7.13;3.00;;;;;;;;;;5041567;28;20111;-77
2022/11/04 11:48:41;;;;;;;8.38;2.38;;;;;;;;;;5076380;28;20033;-78
2022/11/04 11:51:11;;;;;;;7.07;2.65;;;;;;;;;;5041424;28;20123;-76
2022/11/04 11:53:39;;;;;;;8.07;2.63;;;;;;;;;;5058098;28;20063;-79
2022/11/04 11:56:16;;;;;;;5.97;2.90;;;;;;;;;;5058286;28;20058;-79
2022/11/04 11:59:06;;;;;;;9.43;2.72;;;;;;;;;;5075838;28;20024;-78
2022/11/04 12:01:41;;;;;;;7.53;2.42;;;;;;;;;;5058560;28;20035;-78
2022/11/04 12:04:07;;;;;;;5.43;2.70;;;;;;;;;;5058106;28;20372;-79
2022/11/04 12:06:57;;;;;;;6.80;2.40;;;;;;;;;;5075962;28;20033;-77
2022/11/04 12:09:32;;;;;;;12.10;2.60;;;;;;;;;;5057529;28;20348;-77
2022/11/04 12:12:00;;;;;;;6.63;2.88;;;;;;;;;;5075887;28;20032;-76
2022/11/04 12:14:57;;;;;;;6.07;2.42;;;;;;;;;;5057702;28;20118;-76
2022/11/04 12:17:31;;;;;;;8.52;2.63;;;;;;;;;;5071637;28;20036;-76
2022/11/04 12:20:18;;;;;;;7.40;2.70;;;;;;;;;;5041988;28;20024;-77
2022/11/04 12:23:01;;;;;;;6.60;3.05;;;;;;;;;;5076302;28;20031;-77
2022/11/04 12:25:42;;;;;;;4.75;2.50;;;;;;;;;;5042065;28;20055;-78
2022/11/04 12:28:23;;;;;;;7.00;2.60;;;;;;;;;;5057723;28;20028;-77
2022/11/04 12:31:03;;;;;;;8.48;3.05;;;;;;;;;;5058116;28;20028;-77
2022/11/04 12:33:39;;;;;;;6.28;3.08;;;;;;;;;;5075398;28;20024;-77
2022/11/04 12:36:39;;;;;;;12.88;3.85;;;;;;;;;;5058375;28;20032;-77
2022/11/04 12:39:29;;;;;;;20.38;4.18;;;;;;;;;;5058064;28;20462;-77
2022/11/04 12:42:23;;;;;;;20.40;5.10;;;;;;;;;;5076257;28;20058;-78
2022/11/04 12:45:04;;;;;;;23.90;5.60;;;;;;;;;;5041241;28;20360;-77
2022/11/04 12:47:35;;;;;;;16.20;4.80;;;;;;;;;;5075590;28;20029;-78
2022/11/04 12:50:03;;;;;;;14.70;5.10;;;;;;;;;;5057460;28;20047;-78
2022/11/04 12:53:02;;;;;;;17.23;4.30;;;;;;;;;;5075619;28;20036;-77
2022/11/04 12:55:40;;;;;;;14.38;4.28;;;;;;;;;;5076598;28;20051;-78
2022/11/04 12:58:21;;;;;;;15.50;4.20;;;;;;;;;;5058726;28;20020;-77
2022/11/04 13:00:50;;;;;;;12.27;3.83;;;;;;;;;;5077194;28;20052;-77
2022/11/04 13:03:20;;;;;;;11.57;4.00;;;;;;;;;;5059394;28;20032;-78
2022/11/04 13:06:04;;;;;;;10.90;3.85;;;;;;;;;;5058480;28;20115;-77
2022/11/04 13:09:11;;;;;;;12.02;3.67;;;;;;;;;;5040570;28;20395;-77
2022/11/04 13:11:49;;;;;;;14.90;3.72;;;;;;;;;;5067381;28;20041;-77
2022/11/04 13:14:20;;;;;;;7.70;3.50;;;;;;;;;;5057569;28;20464;-78
2022/11/04 13:16:49;;;;;;;6.18;2.85;;;;;;;;;;5057586;28;20028;-78
2022/11/04 13:19:46;;;;;;;11.05;3.70;;;;;;;;;;5039838;28;20020;-78
2022/11/04 13:22:19;;;;;;;9.23;3.15;;;;;;;;;;5049165;28;20032;-78
2022/11/04 13:24:48;;;;;;;6.60;3.40;;;;;;;;;;5057238;28;20024;-77
2022/11/04 13:27:20;;;;;;;9.40;3.10;;;;;;;;;;5056986;28;20024;-77
2022/11/04 13:29:47;;;;;;;5.43;2.90;;;;;;;;;;5057434;28;20021;-77
2022/11/04 13:32:37;;;;;;;7.50;3.20;;;;;;;;;;5045233;28;20032;-77
2022/11/04 13:35:18;;;;;;;8.65;3.05;;;;;;;;;;5039683;28;20062;-78
2022/11/04 13:37:54;;;;;;;4.63;2.85;;;;;;;;;;5055994;28;20029;-77
2022/11/04 13:40:25;;;;;;;5.50;2.50;;;;;;;;;;5055896;28;20115;-78
2022/11/04 13:45:59;;;;;;;4.55;2.55;;;;;;;;;;5073415;28;20109;-77
2022/11/04 13:48:26;;;;;;;5.50;2.72;;;;;;;;;;5073387;28;20487;-77
2022/11/04 13:50:59;;;;;;;6.47;2.53;;;;;;;;;;5055598;28;20482;-77
2022/11/04 13:53:47;;;;;;;7.38;2.75;;;;;;;;;;5055182;28;20189;-77
2022/11/04 13:56:32;;;;;;;10.23;2.97;;;;;;;;;;5072361;28;20047;-76
2022/11/04 13:59:02;;;;;;;7.55;2.63;;;;;;;;;;5073023;28;20417;-76
2022/11/04 14:01:30;;;;;;;8.25;2.42;;;;;;;;;;5038299;28;20050;-79
2022/11/04 14:04:24;;;;;;;3.65;2.25;;;;;;;;;;5073393;28;20101;-78
2022/11/04 14:06:57;;;;;;;5.70;2.60;;;;;;;;;;5072648;28;20379;-78
2022/11/04 14:09:29;;;;;;;4.53;2.20;;;;;;;;;;5038506;28;20356;-77
2022/11/04 14:12:09;;;;;;;6.07;2.00;;;;;;;;;;5072789;28;20024;-77
2022/11/04 14:14:46;;;;;;;4.65;2.10;;;;;;;;;;5072838;28;20111;-77
2022/11/04 14:17:33;;;;;;;3.97;2.20;;;;;;;;;;5055411;28;20132;-78
2022/11/04 14:20:04;;;;;;;3.55;1.83;;;;;;;;;;5072878;28;20024;-77
2022/11/04 14:22:56;;;;;;;3.83;1.63;;;;;;;;;;5073326;28;20430;-77
2022/11/04 14:25:38;;;;;;;3.95;1.80;;;;;;;;;;5073045;28;20024;-77
2022/11/04 14:28:13;;;;;;;3.70;1.90;;;;;;;;;;5055098;28;20017;-77
2022/11/04 14:30:54;;;;;;;6.72;2.13;;;;;;;;;;5073490;28;20486;-77
2022/11/04 14:33:41;;;;;;;6.38;1.77;;;;;;;;;;5055568;28;20073;-78
2022/11/04 14:36:16;;;;;;;2.67;1.70;;;;;;;;;;5074704;28;20043;-78
2022/11/04 14:38:42;;;;;;;5.95;1.88;;;;;;;;;;5038513;28;20032;-78
2022/11/04 14:41:33;;;;;;;8.73;1.85;;;;;;;;;;5055277;28;20447;-78
2022/11/04 14:44:07;;;;;;;7.30;1.73;;;;;;;;;;5072993;28;20041;-78
2022/11/04 14:46:39;;;;;;;10.93;1.75;;;;;;;;;;5054539;28;20025;-78
2022/11/04 14:49:04;;;;;;;4.18;1.70;;;;;;;;;;5055030;28;20111;-78
2022/11/04 14:51:33;;;;;;;6.00;1.73;;;;;;;;;;5055147;28;20079;-78
2022/11/04 14:54:04;;;;;;;7.97;1.73;;;;;;;;;;5055488;28;20039;-78
2022/11/04 14:56:30;;;;;;;3.20;1.60;;;;;;;;;;5055129;28;20063;-78
2022/11/04 14:59:02;;;;;;;7.35;2.00;;;;;;;;;;5054753;28;20111;-78
2022/11/04 15:01:29;;;;;;;6.85;1.85;;;;;;;;;;5037997;28;20523;-78
2022/11/04 15:03:56;;;;;;;4.82;1.80;;;;;;;;;;5054606;28;20036;-78
2022/11/04 15:06:24;;;;;;;1.58;1.30;;;;;;;;;;5038302;28;20033;-78
2022/11/04 15:08:49;;;;;;;3.70;1.38;;;;;;;;;;5058666;28;20024;-78
2022/11/04 15:11:16;;;;;;;6.13;1.95;;;;;;;;;;5058674;28;20029;-78
2022/11/04 15:13:56;;;;;;;3.13;1.65;;;;;;;;;;5059394;28;20378;-78
2022/11/04 15:16:24;;;;;;;4.07;1.80;;;;;;;;;;5059026;28;20024;-78
2022/11/04 15:18:51;;;;;;;5.13;2.10;;;;;;;;;;5076161;28;20181;-78
2022/11/04 15:21:16;;;;;;;7.00;2.10;;;;;;;;;;5059344;28;20106;-77
2022/11/04 15:23:48;;;;;;;7.70;2.10;;;;;;;;;;5077714;28;20060;-78
2022/11/04 15:26:27;;;;;;;3.83;2.13;;;;;;;;;;5059521;28;20031;-78
2022/11/04 15:28:53;;;;;;;6.07;2.22;;;;;;;;;;5041692;28;20024;-78
2022/11/04 15:31:24;;;;;;;3.65;2.10;;;;;;;;;;5043676;28;20096;-77
2022/11/04 15:33:55;;;;;;;9.85;2.25;;;;;;;;;;5060789;28;20395;-78
2022/11/04 15:36:28;;;;;;;4.50;2.78;;;;;;;;;;5059389;28;20496;-78
2022/11/04 15:38:55;;;;;;;;;;;;;;;;;;5059807;28;20028;-78